sensor_id;sensor_type;location;lat;lon;timestamp;P1;durP1;ratioP1;P2;durP2;ratioP2
14241;SDS011;7205;50.864;12.766;2022-07-23T00:00:20;6.97;;;6.37;;
14241;SDS011;7205;50.864;12.766;2022-07-23T00:02:47;7.17;;;6.40;;
14241;SDS011;7205;50.864;12.766;2022-07-23T00:05:14;5.97;;;5.40;;
14241;SDS011;7205;50.864;12.766;2022-07-23T00:07:41;6.97;;;6.17;;
14241;SDS011;7205;50.864;12.766;2022-07-23T00:10:08;6.83;;;5.93;;
14241;SDS011;7205;50.864;12.766;2022-07-23T00:12:38;6.00;;;5.40;;
14241;SDS011;7205;50.864;12.766;2022-07-23T00:15:06;6.57;;;5.20;;
14241;SDS011;7205;50.864;12.766;2022-07-23T00:17:34;6.13;;;5.70;;
14241;SDS011;7205;50.864;12.766;2022-07-23T00:20:01;6.03;;;5.60;;
14241;SDS011;7205;50.864;12.766;2022-07-23T00:22:29;5.27;;;4.87;;
14241;SDS011;7205;50.864;12.766;2022-07-23T00:24:56;5.10;;;4.80;;
14241;SDS011;7205;50.864;12.766;2022-07-23T00:27:23;5.23;;;4.83;;
14241;SDS011;7205;50.864;12.766;2022-07-23T00:29:51;4.97;;;4.60;;
14241;SDS011;7205;50.864;12.766;2022-07-23T00:32:18;4.80;;;4.40;;
14241;SDS011;7205;50.864;12.766;2022-07-23T00:34:45;4.10;;;3.90;;
14241;SDS011;7205;50.864;12.766;2022-07-23T00:37:12;4.40;;;3.93;;
14241;SDS011;7205;50.864;12.766;2022-07-23T00:39:39;4.03;;;3.73;;
14241;SDS011;7205;50.864;12.766;2022-07-23T00:42:06;4.47;;;4.00;;
14241;SDS011;7205;50.864;12.766;2022-07-23T00:44:33;4.50;;;4.20;;
14241;SDS011;7205;50.864;12.766;2022-07-23T00:47:01;4.10;;;3.80;;
14241;SDS011;7205;50.864;12.766;2022-07-23T00:51:58;4.43;;;4.13;;
14241;SDS011;7205;50.864;12.766;2022-07-23T00:54:28;6.43;;;3.80;;
14241;SDS011;7205;50.864;12.766;2022-07-23T00:56:56;4.37;;;4.07;;
14241;SDS011;7205;50.864;12.766;2022-07-23T00:59:26;4.47;;;4.10;;
14241;SDS011;7205;50.864;12.766;2022-07-23T01:01:52;4.17;;;3.97;;
14241;SDS011;7205;50.864;12.766;2022-07-23T01:04:21;4.50;;;4.10;;
14241;SDS011;7205;50.864;12.766;2022-07-23T01:06:48;4.77;;;4.27;;
14241;SDS011;7205;50.864;12.766;2022-07-23T01:09:15;4.33;;;4.03;;
14241;SDS011;7205;50.864;12.766;2022-07-23T01:11:43;4.43;;;3.90;;
14241;SDS011;7205;50.864;12.766;2022-07-23T01:14:11;4.53;;;4.30;;
14241;SDS011;7205;50.864;12.766;2022-07-23T01:16:41;4.53;;;3.97;;
14241;SDS011;7205;50.864;12.766;2022-07-23T01:19:09;4.63;;;4.23;;
14241;SDS011;7205;50.864;12.766;2022-07-23T01:21:39;4.90;;;4.33;;
14241;SDS011;7205;50.864;12.766;2022-07-23T01:24:09;4.17;;;3.93;;
14241;SDS011;7205;50.864;12.766;2022-07-23T01:26:45;4.20;;;3.90;;
14241;SDS011;7205;50.864;12.766;2022-07-23T01:29:13;8.03;;;3.73;;
14241;SDS011;7205;50.864;12.766;2022-07-23T01:31:41;4.63;;;4.23;;
14241;SDS011;7205;50.864;12.766;2022-07-23T01:34:09;4.73;;;4.50;;
14241;SDS011;7205;50.864;12.766;2022-07-23T01:36:36;5.10;;;4.53;;
14241;SDS011;7205;50.864;12.766;2022-07-23T01:39:04;4.50;;;4.20;;
14241;SDS011;7205;50.864;12.766;2022-07-23T01:41:33;4.23;;;4.03;;
14241;SDS011;7205;50.864;12.766;2022-07-23T01:44:01;5.43;;;4.80;;
14241;SDS011;7205;50.864;12.766;2022-07-23T01:46:29;4.97;;;4.67;;
14241;SDS011;7205;50.864;12.766;2022-07-23T01:48:58;4.37;;;4.10;;
14241;SDS011;7205;50.864;12.766;2022-07-23T01:51:45;4.77;;;4.47;;
14241;SDS011;7205;50.864;12.766;2022-07-23T01:54:31;5.10;;;4.10;;
14241;SDS011;7205;50.864;12.766;2022-07-23T01:57:04;4.60;;;4.30;;
14241;SDS011;7205;50.864;12.766;2022-07-23T01:59:32;4.03;;;3.83;;
14241;SDS011;7205;50.864;12.766;2022-07-23T02:02:05;4.07;;;3.87;;
14241;SDS011;7205;50.864;12.766;2022-07-23T02:04:35;4.47;;;4.27;;
14241;SDS011;7205;50.864;12.766;2022-07-23T02:07:03;4.40;;;4.10;;
14241;SDS011;7205;50.864;12.766;2022-07-23T02:09:33;6.63;;;4.17;;
14241;SDS011;7205;50.864;12.766;2022-07-23T02:12:03;4.60;;;4.23;;
14241;SDS011;7205;50.864;12.766;2022-07-23T02:14:35;5.70;;;4.23;;
14241;SDS011;7205;50.864;12.766;2022-07-23T02:17:14;4.57;;;4.27;;
14241;SDS011;7205;50.864;12.766;2022-07-23T02:19:44;4.80;;;4.50;;
14241;SDS011;7205;50.864;12.766;2022-07-23T02:22:24;4.70;;;4.37;;
14241;SDS011;7205;50.864;12.766;2022-07-23T02:24:56;4.60;;;4.30;;
14241;SDS011;7205;50.864;12.766;2022-07-23T02:27:42;4.67;;;4.37;;
14241;SDS011;7205;50.864;12.766;2022-07-23T02:30:16;4.43;;;4.03;;
14241;SDS011;7205;50.864;12.766;2022-07-23T02:32:43;4.93;;;4.43;;
14241;SDS011;7205;50.864;12.766;2022-07-23T02:35:13;4.60;;;4.30;;
14241;SDS011;7205;50.864;12.766;2022-07-23T02:37:47;4.40;;;4.00;;
14241;SDS011;7205;50.864;12.766;2022-07-23T02:40:17;4.60;;;4.40;;
14241;SDS011;7205;50.864;12.766;2022-07-23T02:42:54;4.43;;;3.90;;
14241;SDS011;7205;50.864;12.766;2022-07-23T02:45:25;4.93;;;4.63;;
14241;SDS011;7205;50.864;12.766;2022-07-23T02:48:00;4.00;;;3.80;;
14241;SDS011;7205;50.864;12.766;2022-07-23T02:50:30;4.30;;;3.90;;
14241;SDS011;7205;50.864;12.766;2022-07-23T02:53:07;4.10;;;3.90;;
14241;SDS011;7205;50.864;12.766;2022-07-23T02:55:34;4.33;;;4.13;;
14241;SDS011;7205;50.864;12.766;2022-07-23T02:58:03;5.40;;;4.30;;
14241;SDS011;7205;50.864;12.766;2022-07-23T03:00:31;3.80;;;3.60;;
14241;SDS011;7205;50.864;12.766;2022-07-23T03:02:58;4.60;;;4.30;;
14241;SDS011;7205;50.864;12.766;2022-07-23T03:05:30;4.90;;;4.60;;
14241;SDS011;7205;50.864;12.766;2022-07-23T03:07:59;4.60;;;4.30;;
14241;SDS011;7205;50.864;12.766;2022-07-23T03:10:33;4.53;;;4.23;;
14241;SDS011;7205;50.864;12.766;2022-07-23T03:13:01;4.97;;;4.00;;
14241;SDS011;7205;50.864;12.766;2022-07-23T03:15:30;4.10;;;3.80;;
14241;SDS011;7205;50.864;12.766;2022-07-23T03:18:03;4.47;;;4.17;;
14241;SDS011;7205;50.864;12.766;2022-07-23T03:20:36;4.60;;;4.33;;
14241;SDS011;7205;50.864;12.766;2022-07-23T03:23:08;4.43;;;4.20;;
14241;SDS011;7205;50.864;12.766;2022-07-23T03:25:40;9.87;;;4.10;;
14241;SDS011;7205;50.864;12.766;2022-07-23T03:28:07;4.83;;;4.43;;
14241;SDS011;7205;50.864;12.766;2022-07-23T03:30:38;4.50;;;4.20;;
14241;SDS011;7205;50.864;12.766;2022-07-23T03:33:08;5.40;;;5.00;;
14241;SDS011;7205;50.864;12.766;2022-07-23T03:35:41;6.63;;;5.13;;
14241;SDS011;7205;50.864;12.766;2022-07-23T03:38:21;5.30;;;4.80;;
14241;SDS011;7205;50.864;12.766;2022-07-23T03:40:49;5.30;;;5.00;;
14241;SDS011;7205;50.864;12.766;2022-07-23T03:43:16;5.07;;;4.77;;
14241;SDS011;7205;50.864;12.766;2022-07-23T03:45:45;5.23;;;4.90;;
14241;SDS011;7205;50.864;12.766;2022-07-23T03:48:13;5.33;;;5.03;;
14241;SDS011;7205;50.864;12.766;2022-07-23T03:50:43;5.23;;;4.80;;
14241;SDS011;7205;50.864;12.766;2022-07-23T03:53:10;5.20;;;4.63;;
14241;SDS011;7205;50.864;12.766;2022-07-23T03:55:37;6.13;;;5.63;;
14241;SDS011;7205;50.864;12.766;2022-07-23T03:58:04;5.77;;;5.37;;
14241;SDS011;7205;50.864;12.766;2022-07-23T04:00:32;5.70;;;5.40;;
14241;SDS011;7205;50.864;12.766;2022-07-23T04:03:00;5.73;;;5.30;;
14241;SDS011;7205;50.864;12.766;2022-07-23T04:05:28;5.27;;;4.87;;
14241;SDS011;7205;50.864;12.766;2022-07-23T04:08:04;5.47;;;4.97;;
14241;SDS011;7205;50.864;12.766;2022-07-23T04:10:34;5.40;;;5.10;;
14241;SDS011;7205;50.864;12.766;2022-07-23T04:13:04;6.10;;;5.63;;
14241;SDS011;7205;50.864;12.766;2022-07-23T04:15:31;5.60;;;5.20;;
14241;SDS011;7205;50.864;12.766;2022-07-23T04:18:00;5.60;;;5.20;;
14241;SDS011;7205;50.864;12.766;2022-07-23T04:20:38;5.50;;;5.10;;
14241;SDS011;7205;50.864;12.766;2022-07-23T04:23:05;5.80;;;5.30;;
14241;SDS011;7205;50.864;12.766;2022-07-23T04:25:33;5.80;;;5.40;;
14241;SDS011;7205;50.864;12.766;2022-07-23T04:28:00;5.50;;;5.10;;
14241;SDS011;7205;50.864;12.766;2022-07-23T04:30:27;5.80;;;5.30;;
14241;SDS011;7205;50.864;12.766;2022-07-23T04:32:54;5.90;;;5.40;;
14241;SDS011;7205;50.864;12.766;2022-07-23T04:35:27;5.50;;;5.20;;
14241;SDS011;7205;50.864;12.766;2022-07-23T04:38:04;5.90;;;5.43;;
14241;SDS011;7205;50.864;12.766;2022-07-23T04:40:31;5.87;;;5.37;;
14241;SDS011;7205;50.864;12.766;2022-07-23T04:42:58;6.23;;;5.70;;
14241;SDS011;7205;50.864;12.766;2022-07-23T04:45:25;6.50;;;5.50;;
14241;SDS011;7205;50.864;12.766;2022-07-23T04:47:52;6.17;;;5.67;;
14241;SDS011;7205;50.864;12.766;2022-07-23T04:50:19;6.70;;;6.20;;
14241;SDS011;7205;50.864;12.766;2022-07-23T04:52:51;6.63;;;6.13;;
14241;SDS011;7205;50.864;12.766;2022-07-23T04:55:18;7.07;;;6.47;;
14241;SDS011;7205;50.864;12.766;2022-07-23T04:57:45;6.77;;;6.27;;
14241;SDS011;7205;50.864;12.766;2022-07-23T05:00:12;6.70;;;6.20;;
14241;SDS011;7205;50.864;12.766;2022-07-23T05:02:40;7.20;;;6.60;;
14241;SDS011;7205;50.864;12.766;2022-07-23T05:05:07;6.90;;;6.30;;
14241;SDS011;7205;50.864;12.766;2022-07-23T05:07:34;7.07;;;6.47;;
14241;SDS011;7205;50.864;12.766;2022-07-23T05:10:03;6.77;;;6.37;;
14241;SDS011;7205;50.864;12.766;2022-07-23T05:12:30;7.90;;;7.27;;
14241;SDS011;7205;50.864;12.766;2022-07-23T05:14:58;9.37;;;6.97;;
14241;SDS011;7205;50.864;12.766;2022-07-23T05:17:25;7.23;;;6.73;;
14241;SDS011;7205;50.864;12.766;2022-07-23T05:19:52;7.10;;;6.50;;
14241;SDS011;7205;50.864;12.766;2022-07-23T05:22:19;8.03;;;6.47;;
14241;SDS011;7205;50.864;12.766;2022-07-23T05:24:46;7.10;;;6.60;;
14241;SDS011;7205;50.864;12.766;2022-07-23T05:27:15;7.47;;;6.30;;
14241;SDS011;7205;50.864;12.766;2022-07-23T05:29:42;7.30;;;6.70;;
14241;SDS011;7205;50.864;12.766;2022-07-23T05:32:09;6.83;;;6.23;;
14241;SDS011;7205;50.864;12.766;2022-07-23T05:34:39;6.93;;;6.43;;
14241;SDS011;7205;50.864;12.766;2022-07-23T05:37:06;8.93;;;8.03;;
14241;SDS011;7205;50.864;12.766;2022-07-23T05:39:33;6.60;;;6.00;;
14241;SDS011;7205;50.864;12.766;2022-07-23T05:42:00;6.50;;;6.00;;
14241;SDS011;7205;50.864;12.766;2022-07-23T05:44:29;6.70;;;6.10;;
14241;SDS011;7205;50.864;12.766;2022-07-23T05:46:56;6.93;;;6.30;;
14241;SDS011;7205;50.864;12.766;2022-07-23T05:49:25;6.03;;;5.53;;
14241;SDS011;7205;50.864;12.766;2022-07-23T05:51:58;6.23;;;5.77;;
14241;SDS011;7205;50.864;12.766;2022-07-23T05:54:40;5.40;;;5.00;;
14241;SDS011;7205;50.864;12.766;2022-07-23T05:57:08;8.33;;;6.10;;
14241;SDS011;7205;50.864;12.766;2022-07-23T05:59:36;6.73;;;5.17;;
14241;SDS011;7205;50.864;12.766;2022-07-23T06:02:03;6.33;;;5.70;;
14241;SDS011;7205;50.864;12.766;2022-07-23T06:04:30;6.10;;;5.60;;
14241;SDS011;7205;50.864;12.766;2022-07-23T06:07:15;5.73;;;5.33;;
14241;SDS011;7205;50.864;12.766;2022-07-23T06:09:42;6.60;;;5.20;;
14241;SDS011;7205;50.864;12.766;2022-07-23T06:12:09;5.67;;;5.23;;
14241;SDS011;7205;50.864;12.766;2022-07-23T06:14:37;6.40;;;4.80;;
14241;SDS011;7205;50.864;12.766;2022-07-23T06:17:04;5.80;;;5.40;;
14241;SDS011;7205;50.864;12.766;2022-07-23T06:19:31;5.50;;;5.10;;
14241;SDS011;7205;50.864;12.766;2022-07-23T06:21:59;8.40;;;5.10;;
14241;SDS011;7205;50.864;12.766;2022-07-23T06:24:27;5.57;;;5.17;;
14241;SDS011;7205;50.864;12.766;2022-07-23T06:26:57;5.23;;;4.83;;
14241;SDS011;7205;50.864;12.766;2022-07-23T06:29:24;5.90;;;4.63;;
14241;SDS011;7205;50.864;12.766;2022-07-23T06:31:52;4.97;;;4.67;;
14241;SDS011;7205;50.864;12.766;2022-07-23T06:34:19;5.90;;;5.10;;
14241;SDS011;7205;50.864;12.766;2022-07-23T06:36:46;6.03;;;4.90;;
14241;SDS011;7205;50.864;12.766;2022-07-23T06:39:13;6.67;;;4.87;;
14241;SDS011;7205;50.864;12.766;2022-07-23T06:41:43;5.37;;;4.87;;
14241;SDS011;7205;50.864;12.766;2022-07-23T06:44:10;7.50;;;4.87;;
14241;SDS011;7205;50.864;12.766;2022-07-23T06:46:41;5.60;;;4.70;;
14241;SDS011;7205;50.864;12.766;2022-07-23T06:49:10;5.23;;;4.77;;
14241;SDS011;7205;50.864;12.766;2022-07-23T06:51:37;5.50;;;5.00;;
14241;SDS011;7205;50.864;12.766;2022-07-23T06:54:04;5.37;;;4.87;;
14241;SDS011;7205;50.864;12.766;2022-07-23T06:56:31;5.17;;;4.70;;
14241;SDS011;7205;50.864;12.766;2022-07-23T06:58:58;5.77;;;4.20;;
14241;SDS011;7205;50.864;12.766;2022-07-23T07:01:26;4.90;;;4.40;;
14241;SDS011;7205;50.864;12.766;2022-07-23T07:03:52;5.37;;;4.87;;
14241;SDS011;7205;50.864;12.766;2022-07-23T07:06:21;4.73;;;4.43;;
14241;SDS011;7205;50.864;12.766;2022-07-23T07:08:48;5.23;;;4.57;;
14241;SDS011;7205;50.864;12.766;2022-07-23T07:11:15;4.90;;;4.50;;
14241;SDS011;7205;50.864;12.766;2022-07-23T07:13:41;4.93;;;4.27;;
14241;SDS011;7205;50.864;12.766;2022-07-23T07:16:08;5.00;;;4.40;;
14241;SDS011;7205;50.864;12.766;2022-07-23T07:18:36;7.63;;;4.43;;
14241;SDS011;7205;50.864;12.766;2022-07-23T07:21:03;7.00;;;4.70;;
14241;SDS011;7205;50.864;12.766;2022-07-23T07:23:31;5.77;;;4.50;;
14241;SDS011;7205;50.864;12.766;2022-07-23T07:25:58;6.70;;;4.50;;
14241;SDS011;7205;50.864;12.766;2022-07-23T07:28:25;4.23;;;3.93;;
14241;SDS011;7205;50.864;12.766;2022-07-23T07:30:52;5.00;;;4.17;;
14241;SDS011;7205;50.864;12.766;2022-07-23T07:33:19;5.30;;;4.10;;
14241;SDS011;7205;50.864;12.766;2022-07-23T07:35:47;4.87;;;4.10;;
14241;SDS011;7205;50.864;12.766;2022-07-23T07:38:14;5.23;;;4.27;;
14241;SDS011;7205;50.864;12.766;2022-07-23T07:40:42;7.67;;;4.70;;
14241;SDS011;7205;50.864;12.766;2022-07-23T07:43:09;4.93;;;4.23;;
14241;SDS011;7205;50.864;12.766;2022-07-23T07:45:36;4.83;;;4.43;;
14241;SDS011;7205;50.864;12.766;2022-07-23T07:48:03;4.23;;;3.83;;
14241;SDS011;7205;50.864;12.766;2022-07-23T07:50:31;4.90;;;3.97;;
14241;SDS011;7205;50.864;12.766;2022-07-23T07:52:58;4.97;;;4.40;;
14241;SDS011;7205;50.864;12.766;2022-07-23T07:55:24;4.22;;;3.92;;
14241;SDS011;7205;50.864;12.766;2022-07-23T07:57:53;4.68;;;3.95;;
14241;SDS011;7205;50.864;12.766;2022-07-23T08:00:20;5.63;;;4.05;;
14241;SDS011;7205;50.864;12.766;2022-07-23T08:02:48;4.57;;;4.18;;
14241;SDS011;7205;50.864;12.766;2022-07-23T08:05:18;4.88;;;4.43;;
14241;SDS011;7205;50.864;12.766;2022-07-23T08:07:47;4.60;;;4.30;;
14241;SDS011;7205;50.864;12.766;2022-07-23T08:10:14;4.57;;;4.25;;
14241;SDS011;7205;50.864;12.766;2022-07-23T08:12:41;4.60;;;4.30;;
14241;SDS011;7205;50.864;12.766;2022-07-23T08:15:12;4.63;;;4.32;;
14241;SDS011;7205;50.864;12.766;2022-07-23T08:17:40;4.63;;;4.32;;
14241;SDS011;7205;50.864;12.766;2022-07-23T08:20:09;6.60;;;4.38;;
14241;SDS011;7205;50.864;12.766;2022-07-23T08:22:44;4.32;;;4.03;;
14241;SDS011;7205;50.864;12.766;2022-07-23T08:25:12;4.35;;;3.95;;
14241;SDS011;7205;50.864;12.766;2022-07-23T08:27:40;6.35;;;4.90;;
14241;SDS011;7205;50.864;12.766;2022-07-23T08:30:08;4.07;;;3.88;;
14241;SDS011;7205;50.864;12.766;2022-07-23T08:35:23;4.63;;;4.18;;
14241;SDS011;7205;50.864;12.766;2022-07-23T08:37:52;4.13;;;3.92;;
14241;SDS011;7205;50.864;12.766;2022-07-23T08:40:19;4.10;;;3.70;;
14241;SDS011;7205;50.864;12.766;2022-07-23T08:42:47;6.47;;;4.22;;
14241;SDS011;7205;50.864;12.766;2022-07-23T08:45:16;6.93;;;4.25;;
14241;SDS011;7205;50.864;12.766;2022-07-23T08:47:47;3.92;;;3.63;;
14241;SDS011;7205;50.864;12.766;2022-07-23T08:50:17;5.65;;;4.50;;
14241;SDS011;7205;50.864;12.766;2022-07-23T08:52:43;4.82;;;4.32;;
14241;SDS011;7205;50.864;12.766;2022-07-23T08:55:11;4.80;;;4.40;;
14241;SDS011;7205;50.864;12.766;2022-07-23T08:57:38;4.47;;;3.80;;
14241;SDS011;7205;50.864;12.766;2022-07-23T09:00:05;4.45;;;4.05;;
14241;SDS011;7205;50.864;12.766;2022-07-23T09:02:38;4.60;;;4.20;;
14241;SDS011;7205;50.864;12.766;2022-07-23T09:05:06;4.57;;;4.25;;
14241;SDS011;7205;50.864;12.766;2022-07-23T09:07:35;6.32;;;4.13;;
14241;SDS011;7205;50.864;12.766;2022-07-23T09:10:08;5.18;;;4.80;;
14241;SDS011;7205;50.864;12.766;2022-07-23T09:12:37;4.72;;;4.32;;
14241;SDS011;7205;50.864;12.766;2022-07-23T09:15:05;4.55;;;4.25;;
14241;SDS011;7205;50.864;12.766;2022-07-23T09:17:37;3.90;;;3.60;;
14241;SDS011;7205;50.864;12.766;2022-07-23T09:20:09;4.40;;;4.00;;
14241;SDS011;7205;50.864;12.766;2022-07-23T09:22:39;4.93;;;4.22;;
14241;SDS011;7205;50.864;12.766;2022-07-23T09:25:08;4.57;;;4.28;;
14241;SDS011;7205;50.864;12.766;2022-07-23T09:27:47;4.85;;;4.53;;
14241;SDS011;7205;50.864;12.766;2022-07-23T09:30:19;5.13;;;4.63;;
14241;SDS011;7205;50.864;12.766;2022-07-23T09:35:43;4.80;;;4.40;;
14241;SDS011;7205;50.864;12.766;2022-07-23T09:38:12;5.07;;;4.53;;
14241;SDS011;7205;50.864;12.766;2022-07-23T09:40:39;6.47;;;5.00;;
14241;SDS011;7205;50.864;12.766;2022-07-23T09:43:07;6.90;;;5.15;;
14241;SDS011;7205;50.864;12.766;2022-07-23T09:45:34;5.43;;;4.72;;
14241;SDS011;7205;50.864;12.766;2022-07-23T09:48:11;5.80;;;4.93;;
14241;SDS011;7205;50.864;12.766;2022-07-23T09:50:39;4.72;;;4.35;;
14241;SDS011;7205;50.864;12.766;2022-07-23T09:53:07;4.85;;;4.45;;
14241;SDS011;7205;50.864;12.766;2022-07-23T09:55:36;5.32;;;4.80;;
14241;SDS011;7205;50.864;12.766;2022-07-23T09:58:04;6.75;;;5.20;;
14241;SDS011;7205;50.864;12.766;2022-07-23T10:00:33;5.72;;;5.22;;
14241;SDS011;7205;50.864;12.766;2022-07-23T10:03:01;5.10;;;4.65;;
14241;SDS011;7205;50.864;12.766;2022-07-23T10:05:29;4.97;;;4.57;;
14241;SDS011;7205;50.864;12.766;2022-07-23T10:08:29;10.18;;;5.00;;
14241;SDS011;7205;50.864;12.766;2022-07-23T10:11:29;4.90;;;4.50;;
14241;SDS011;7205;50.864;12.766;2022-07-23T10:14:05;7.47;;;5.03;;
14241;SDS011;7205;50.864;12.766;2022-07-23T10:16:52;5.82;;;5.00;;
14241;SDS011;7205;50.864;12.766;2022-07-23T10:19:20;4.93;;;4.53;;
14241;SDS011;7205;50.864;12.766;2022-07-23T10:21:49;4.95;;;4.45;;
14241;SDS011;7205;50.864;12.766;2022-07-23T10:24:21;5.05;;;4.72;;
14241;SDS011;7205;50.864;12.766;2022-07-23T10:27:02;6.68;;;4.72;;
14241;SDS011;7205;50.864;12.766;2022-07-23T10:29:42;5.53;;;5.07;;
14241;SDS011;7205;50.864;12.766;2022-07-23T10:32:20;4.97;;;4.57;;
14241;SDS011;7205;50.864;12.766;2022-07-23T10:34:57;5.40;;;4.97;;
14241;SDS011;7205;50.864;12.766;2022-07-23T10:37:38;6.13;;;5.37;;
14241;SDS011;7205;50.864;12.766;2022-07-23T10:40:08;5.83;;;5.30;;
14241;SDS011;7205;50.864;12.766;2022-07-23T10:42:38;6.33;;;5.43;;
14241;SDS011;7205;50.864;12.766;2022-07-23T10:45:26;5.60;;;5.10;;
14241;SDS011;7205;50.864;12.766;2022-07-23T10:47:55;6.13;;;4.80;;
14241;SDS011;7205;50.864;12.766;2022-07-23T10:50:39;9.27;;;5.80;;
14241;SDS011;7205;50.864;12.766;2022-07-23T10:53:11;6.47;;;5.97;;
14241;SDS011;7205;50.864;12.766;2022-07-23T10:55:44;7.07;;;6.37;;
14241;SDS011;7205;50.864;12.766;2022-07-23T10:58:18;7.47;;;6.60;;
14241;SDS011;7205;50.864;12.766;2022-07-23T11:00:47;6.53;;;6.03;;
14241;SDS011;7205;50.864;12.766;2022-07-23T11:03:33;6.03;;;5.53;;
14241;SDS011;7205;50.864;12.766;2022-07-23T11:06:04;8.23;;;6.00;;
14241;SDS011;7205;50.864;12.766;2022-07-23T11:08:32;6.23;;;5.63;;
14241;SDS011;7205;50.864;12.766;2022-07-23T11:11:09;6.20;;;5.60;;
14241;SDS011;7205;50.864;12.766;2022-07-23T11:13:39;7.80;;;6.00;;
14241;SDS011;7205;50.864;12.766;2022-07-23T11:16:12;8.17;;;6.53;;
14241;SDS011;7205;50.864;12.766;2022-07-23T11:18:57;7.03;;;6.47;;
14241;SDS011;7205;50.864;12.766;2022-07-23T11:21:46;7.40;;;6.80;;
14241;SDS011;7205;50.864;12.766;2022-07-23T11:24:18;7.40;;;6.80;;
14241;SDS011;7205;50.864;12.766;2022-07-23T11:26:56;7.10;;;6.37;;
14241;SDS011;7205;50.864;12.766;2022-07-23T11:37:53;7.20;;;6.50;;
14241;SDS011;7205;50.864;12.766;2022-07-23T11:40:24;7.27;;;6.67;;
14241;SDS011;7205;50.864;12.766;2022-07-23T11:42:53;7.55;;;6.50;;
14241;SDS011;7205;50.864;12.766;2022-07-23T11:45:24;6.88;;;6.38;;
14241;SDS011;7205;50.864;12.766;2022-07-23T11:47:53;7.32;;;6.65;;
14241;SDS011;7205;50.864;12.766;2022-07-23T11:50:22;6.40;;;5.90;;
14241;SDS011;7205;50.864;12.766;2022-07-23T11:52:50;7.28;;;6.63;;
14241;SDS011;7205;50.864;12.766;2022-07-23T11:55:17;7.25;;;6.65;;
14241;SDS011;7205;50.864;12.766;2022-07-23T11:57:45;10.65;;;8.00;;
14241;SDS011;7205;50.864;12.766;2022-07-23T12:00:13;7.60;;;6.97;;
14241;SDS011;7205;50.864;12.766;2022-07-23T12:02:44;7.63;;;7.00;;
14241;SDS011;7205;50.864;12.766;2022-07-23T12:05:12;9.73;;;7.43;;
14241;SDS011;7205;50.864;12.766;2022-07-23T12:07:41;9.02;;;8.15;;
14241;SDS011;7205;50.864;12.766;2022-07-23T12:10:11;7.95;;;7.28;;
14241;SDS011;7205;50.864;12.766;2022-07-23T12:12:41;9.02;;;8.15;;
14241;SDS011;7205;50.864;12.766;2022-07-23T12:15:09;8.10;;;7.40;;
14241;SDS011;7205;50.864;12.766;2022-07-23T12:17:38;9.07;;;8.07;;
14241;SDS011;7205;50.864;12.766;2022-07-23T12:20:08;8.63;;;7.78;;
14241;SDS011;7205;50.864;12.766;2022-07-23T12:22:40;7.63;;;7.10;;
14241;SDS011;7205;50.864;12.766;2022-07-23T12:25:10;7.75;;;7.15;;
14241;SDS011;7205;50.864;12.766;2022-07-23T12:27:42;8.00;;;7.32;;
14241;SDS011;7205;50.864;12.766;2022-07-23T12:32:58;6.90;;;6.40;;
14241;SDS011;7205;50.864;12.766;2022-07-23T12:35:31;8.10;;;7.20;;
14241;SDS011;7205;50.864;12.766;2022-07-23T12:38:00;8.13;;;7.22;;
14241;SDS011;7205;50.864;12.766;2022-07-23T12:40:29;7.88;;;6.80;;
14241;SDS011;7205;50.864;12.766;2022-07-23T12:42:57;7.95;;;7.25;;
14241;SDS011;7205;50.864;12.766;2022-07-23T12:45:26;8.02;;;7.43;;
14241;SDS011;7205;50.864;12.766;2022-07-23T12:48:07;9.68;;;8.63;;
14241;SDS011;7205;50.864;12.766;2022-07-23T12:50:38;8.20;;;7.60;;
14241;SDS011;7205;50.864;12.766;2022-07-23T12:53:08;7.40;;;6.80;;
14241;SDS011;7205;50.864;12.766;2022-07-23T12:55:37;7.68;;;6.97;;
14241;SDS011;7205;50.864;12.766;2022-07-23T12:58:06;7.47;;;6.93;;
14241;SDS011;7205;50.864;12.766;2022-07-23T13:00:55;7.68;;;7.03;;
14241;SDS011;7205;50.864;12.766;2022-07-23T13:03:34;8.38;;;7.68;;
14241;SDS011;7205;50.864;12.766;2022-07-23T13:06:06;7.97;;;7.28;;
14241;SDS011;7205;50.864;12.766;2022-07-23T13:08:35;7.10;;;6.50;;
14241;SDS011;7205;50.864;12.766;2022-07-23T13:11:03;7.30;;;6.70;;
14241;SDS011;7205;50.864;12.766;2022-07-23T13:13:32;6.90;;;6.50;;
14241;SDS011;7205;50.864;12.766;2022-07-23T13:16:00;6.53;;;6.00;;
14241;SDS011;7205;50.864;12.766;2022-07-23T13:18:28;7.05;;;6.45;;
14241;SDS011;7205;50.864;12.766;2022-07-23T13:20:55;6.70;;;6.30;;
14241;SDS011;7205;50.864;12.766;2022-07-23T13:23:24;7.32;;;6.72;;
14241;SDS011;7205;50.864;12.766;2022-07-23T13:25:51;7.60;;;6.97;;
14241;SDS011;7205;50.864;12.766;2022-07-23T13:28:19;7.38;;;6.10;;
14241;SDS011;7205;50.864;12.766;2022-07-23T13:30:48;9.07;;;6.53;;
14241;SDS011;7205;50.864;12.766;2022-07-23T13:33:16;6.05;;;5.65;;
14241;SDS011;7205;50.864;12.766;2022-07-23T13:35:44;6.38;;;5.88;;
14241;SDS011;7205;50.864;12.766;2022-07-23T13:38:11;6.32;;;5.93;;
14241;SDS011;7205;50.864;12.766;2022-07-23T13:40:40;6.80;;;6.20;;
14241;SDS011;7205;50.864;12.766;2022-07-23T13:43:09;7.22;;;6.50;;
14241;SDS011;7205;50.864;12.766;2022-07-23T13:45:37;6.95;;;6.30;;
14241;SDS011;7205;50.864;12.766;2022-07-23T13:48:05;8.70;;;7.68;;
14241;SDS011;7205;50.864;12.766;2022-07-23T13:50:33;7.85;;;7.25;;
14241;SDS011;7205;50.864;12.766;2022-07-23T13:53:02;8.05;;;7.25;;
14241;SDS011;7205;50.864;12.766;2022-07-23T13:55:33;14.70;;;8.90;;
14241;SDS011;7205;50.864;12.766;2022-07-23T13:58:01;8.18;;;7.57;;
14241;SDS011;7205;50.864;12.766;2022-07-23T14:00:29;7.88;;;7.18;;
14241;SDS011;7205;50.864;12.766;2022-07-23T14:02:56;7.10;;;6.45;;
14241;SDS011;7205;50.864;12.766;2022-07-23T14:05:25;7.70;;;7.10;;
14241;SDS011;7205;50.864;12.766;2022-07-23T14:07:52;8.30;;;7.50;;
14241;SDS011;7205;50.864;12.766;2022-07-23T14:10:20;9.18;;;8.13;;
14241;SDS011;7205;50.864;12.766;2022-07-23T14:12:48;8.88;;;8.07;;
14241;SDS011;7205;50.864;12.766;2022-07-23T14:15:19;9.43;;;8.63;;
14241;SDS011;7205;50.864;12.766;2022-07-23T14:17:50;11.50;;;10.50;;
14241;SDS011;7205;50.864;12.766;2022-07-23T14:20:17;10.40;;;9.70;;
14241;SDS011;7205;50.864;12.766;2022-07-23T14:22:44;9.23;;;8.52;;
14241;SDS011;7205;50.864;12.766;2022-07-23T14:25:11;10.30;;;9.40;;
14241;SDS011;7205;50.864;12.766;2022-07-23T14:27:39;11.35;;;10.27;;
14241;SDS011;7205;50.864;12.766;2022-07-23T14:30:06;10.30;;;9.60;;
14241;SDS011;7205;50.864;12.766;2022-07-23T14:32:39;10.68;;;9.82;;
14241;SDS011;7205;50.864;12.766;2022-07-23T14:35:10;10.50;;;9.60;;
14241;SDS011;7205;50.864;12.766;2022-07-23T14:37:38;10.70;;;9.90;;
14241;SDS011;7205;50.864;12.766;2022-07-23T14:40:05;10.38;;;9.68;;
14241;SDS011;7205;50.864;12.766;2022-07-23T14:42:33;9.55;;;8.85;;
14241;SDS011;7205;50.864;12.766;2022-07-23T14:45:00;11.55;;;9.77;;
14241;SDS011;7205;50.864;12.766;2022-07-23T14:47:27;9.68;;;8.98;;
14241;SDS011;7205;50.864;12.766;2022-07-23T14:49:55;9.25;;;8.55;;
14241;SDS011;7205;50.864;12.766;2022-07-23T14:52:24;9.95;;;9.23;;
14241;SDS011;7205;50.864;12.766;2022-07-23T14:54:51;10.73;;;9.90;;
14241;SDS011;7205;50.864;12.766;2022-07-23T14:57:18;9.82;;;9.10;;
14241;SDS011;7205;50.864;12.766;2022-07-23T14:59:48;9.65;;;8.90;;
14241;SDS011;7205;50.864;12.766;2022-07-23T15:02:22;9.45;;;8.63;;
14241;SDS011;7205;50.864;12.766;2022-07-23T15:04:49;9.45;;;8.75;;
14241;SDS011;7205;50.864;12.766;2022-07-23T15:07:18;9.40;;;8.50;;
14241;SDS011;7205;50.864;12.766;2022-07-23T15:09:45;8.98;;;8.38;;
14241;SDS011;7205;50.864;12.766;2022-07-23T15:12:13;8.73;;;8.13;;
14241;SDS011;7205;50.864;12.766;2022-07-23T15:14:41;9.02;;;8.30;;
14241;SDS011;7205;50.864;12.766;2022-07-23T15:17:08;10.27;;;9.30;;
14241;SDS011;7205;50.864;12.766;2022-07-23T15:19:35;10.85;;;9.93;;
14241;SDS011;7205;50.864;12.766;2022-07-23T15:22:02;9.90;;;9.20;;